Latest Weather Observations for Mount Ginini

IDN60801

Issued at 10:02 pm EDT Saturday 6 February 2016 (issued every 30 minutes, with the page automatically refreshed every 10 minutes)

About weather observations | Map of weather stations | Latest weather observations for NSW | Other Formats
Station Details ID: 070349 Name: MOUNT GININI AWS Lat: -35.53 Lon: 148.77 Height: 1760.0 m
Data from the previous 72 hours. | See also: Recent months at Mount Ginini
Date/Time
EDT
Temp
°C
App
Temp
°C
Dew
Point
Rel
Hum
%
Delta-T
°C
Wind Press
QNH
hPa
Press
MSL
hPa
Rain
since 9 am
mm
Dir
 
Spd
km/h
Gust
km/h
Spd
kts
Gust
kts
06/09:30pm 9.3 6.5 8.7 96 0.3 ENE 13 19 7 10 - - 0.0
06/09:00pm 9.7 7.0 8.9 95 0.4 ENE 13 20 7 11 - - 0.0
06/08:30pm 10.2 7.2 9.3 94 0.5 ENE 15 20 8 11 - - 0.0
06/08:00pm 10.8 8.4 9.9 94 0.5 ENE 13 22 7 12 - - 0.0
06/07:30pm 11.8 9.2 9.5 86 1.3 ENE 13 19 7 10 - - 0.0
06/07:00pm 12.8 10.1 9.1 78 2.1 ENE 13 24 7 13 - - 0.0
06/06:30pm 13.8 11.1 9.0 73 2.7 ENE 13 22 7 12 - - 0.0
06/06:00pm 14.3 11.6 8.9 70 3.0 ENE 13 24 7 13 - - 0.0
06/05:30pm 15.2 12.9 9.1 67 3.4 ENE 11 22 6 12 - - 0.0
06/05:00pm 15.1 12.4 8.8 66 3.5 E 13 20 7 11 - - 0.0
06/04:30pm 16.0 13.9 9.9 67 3.5 E 11 19 6 10 - - 0.0
06/04:00pm 16.0 13.6 8.7 62 4.1 ENE 11 20 6 11 - - 0.0
06/03:30pm 16.4 14.1 9.1 62 4.1 E 11 22 6 12 - - 0.0
06/03:00pm 15.8 13.2 9.5 66 3.6 ENE 13 24 7 13 - - 0.0
06/02:30pm 15.4 13.1 8.9 65 3.6 E 11 19 6 10 - - 0.0
06/02:00pm 15.0 12.5 8.0 63 3.8 E 11 22 6 12 - - 0.0
06/01:30pm 15.7 13.3 10.0 69 3.3 ENE 13 26 7 14 - - 0.0
06/01:00pm 15.6 13.4 9.5 67 3.5 ENE 11 22 6 12 - - 0.0
06/12:30pm 14.0 11.3 9.0 72 2.8 E 13 24 7 13 - - 0.0
06/12:00pm 13.5 9.7 7.5 67 3.2 ENE 17 28 9 15 - - 0.0
06/11:30am 13.2 9.3 8.7 74 2.5 ENE 19 32 10 17 - - 0.0
06/11:00am 12.5 8.5 9.1 80 1.9 ENE 20 37 11 20 - - 0.0
06/10:30am 12.2 8.2 10.4 89 1.0 E 22 37 12 20 - - 0.0
06/10:00am 11.5 8.9 10.7 95 0.5 E 15 30 8 16 - - 0.0
06/09:30am 10.0 5.0 9.5 97 0.3 E 26 41 14 22 - - 0.0
06/09:00am 8.9 3.6 8.6 98 0.2 E 26 41 14 22 - - 0.0
06/08:30am 8.0 2.9 7.7 98 0.2 E 24 41 13 22 - - 0.0
06/08:00am 7.3 2.4 7.0 98 0.2 E 22 37 12 20 - - 0.0
06/07:30am 6.6 1.2 6.3 98 0.2 ESE 24 41 13 22 - - 0.0
06/07:00am 6.5 0.7 6.2 98 0.2 E 26 41 14 22 - - 0.0
06/06:30am 6.6 1.6 6.3 98 0.2 E 22 39 12 21 - - 0.0
06/06:00am 6.6 1.6 6.3 98 0.2 E 22 39 12 21 - - 0.0
06/05:30am 6.3 0.4 6.0 98 0.1 E 26 44 14 24 - - 0.0
06/05:00am 6.6 1.6 6.3 98 0.2 E 22 50 12 27 - - 0.0
06/04:30am 6.7 1.3 6.4 98 0.2 E 24 43 13 23 - - 0.0
06/04:00am 6.7 1.3 6.4 98 0.2 E 24 46 13 25 - - 0.0
06/03:30am 7.3 2.8 7.0 98 0.2 E 20 43 11 23 - - 0.0
06/03:00am 6.9 1.6 6.6 98 0.2 E 24 48 13 26 - - 0.0
06/02:30am 7.0 2.1 6.7 98 0.2 E 22 43 12 23 - - 0.0
06/02:00am 7.5 3.1 7.2 98 0.2 E 20 41 11 22 - - 0.0
06/01:30am 7.5 2.7 7.2 98 0.2 E 22 41 12 22 - - 0.0
06/01:00am 7.5 1.5 7.2 98 0.2 E 28 50 15 27 - - 0.0
06/12:58am 7.4 1.4 7.1 98 0.2 E 28 50 15 27 - - 0.0
06/12:30am 7.4 2.2 7.1 98 0.2 E 24 41 13 22 - - 0.0
06/12:00am 7.6 3.2 7.3 98 0.2 E 20 43 11 23 - - 0.0
 
Date/Time
EDT
Temp
°C
App
Temp
°C
Dew
Point
Rel
Hum
%
Delta-T
°C
Wind Press
QNH
hPa
Press
MSL
hPa
Rain
since 9 am
mm
Dir
 
Spd
km/h
Gust
km/h
Spd
kts
Gust
kts
05/11:30pm 7.7 2.5 7.4 98 0.2 E 24 44 13 24 - - 0.0
05/11:00pm 7.7 2.9 7.3 97 0.2 E 22 39 12 21 - - 0.0
05/10:30pm 8.0 3.6 7.6 97 0.2 E 20 41 11 22 - - 0.0
05/10:00pm 8.3 4.0 7.9 97 0.2 E 20 37 11 20 - - 0.0
05/09:30pm 8.6 4.4 8.2 97 0.2 E 20 46 11 25 - - 0.0
05/09:00pm 8.8 4.8 8.2 96 0.3 E 19 32 10 17 - - 0.0
05/08:30pm 9.1 5.5 8.3 95 0.4 ESE 17 32 9 17 - - 0.0
05/08:00pm 10.1 7.1 9.2 94 0.5 E 15 32 8 17 - - 0.0
05/07:30pm 9.9 6.1 9.0 94 0.5 E 19 35 10 19 - - 0.0
05/07:00pm 11.2 7.7 8.8 85 1.3 E 17 33 9 18 - - 0.0
05/06:30pm 11.9 7.9 6.8 71 2.7 E 17 35 9 19 - - 0.0
05/06:00pm 12.8 9.6 7.0 68 3.1 E 13 26 7 14 - - 0.0
05/05:30pm 12.9 9.0 7.1 68 3.1 E 17 33 9 18 - - 0.0
05/05:00pm 13.1 8.7 6.5 64 3.5 E 19 35 10 19 - - 0.0
05/04:30pm 14.0 10.3 8.0 67 3.3 E 17 32 9 17 - - 0.0
05/04:00pm 14.4 10.7 8.1 66 3.5 E 17 32 9 17 - - 0.0
05/03:30pm 14.3 10.0 8.0 66 3.4 E 20 39 11 21 - - 0.0
05/03:00pm 14.3 10.0 8.0 66 3.4 E 20 35 11 19 - - 0.0
05/02:30pm 13.9 9.8 7.9 67 3.3 E 19 44 10 24 - - 0.0
05/02:00pm 14.0 9.4 8.2 68 3.2 E 22 43 12 23 - - 0.0
05/01:30pm 12.4 7.4 7.9 74 2.4 E 24 43 13 23 - - 0.0
05/01:00pm 12.4 8.7 10.1 86 1.3 E 20 37 11 20 - - 0.0
05/12:30pm 11.3 7.0 9.4 88 1.1 E 22 44 12 24 - - 0.0
05/12:00pm 10.8 6.5 9.4 91 0.8 E 22 41 12 22 - - 0.0
05/11:30am 10.0 6.0 9.1 94 0.5 E 20 41 11 22 - - 0.0
05/11:00am 10.5 6.9 9.7 95 0.4 E 19 41 10 22 - - 0.0
05/10:30am 9.6 6.6 9.1 97 0.3 E 15 37 8 20 - - 0.0
05/10:00am 8.4 4.2 8.1 98 0.2 ESE 20 52 11 28 - - 0.0
05/09:30am 6.8 1.8 6.5 98 0.2 ESE 22 50 12 27 - - 0.0
05/09:00am 6.2 2.4 5.8 97 0.2 ESE 15 46 8 25 - - 0.0
05/08:30am 5.9 1.1 5.6 98 0.1 ESE 20 44 11 24 - - 0.0
05/08:00am 5.7 0.5 5.4 98 0.1 ESE 22 52 12 28 - - 0.0
05/07:30am 5.3 -0.4 5.0 98 0.1 ESE 24 48 13 26 - - 0.0
05/07:21am 5.3 -1.1 5.0 98 0.1 ESE 28 54 15 29 - - 0.0
05/07:00am 5.1 -0.6 4.8 98 0.1 ESE 24 56 13 30 - - 0.0
05/06:30am 5.1 -0.6 4.8 98 0.1 ESE 24 63 13 34 - - 0.0
05/06:00am 5.0 -1.1 4.7 98 0.1 ESE 26 50 14 27 - - 0.0
05/05:30am 5.4 -0.6 5.1 98 0.1 ESE 26 52 14 28 - - 0.0
05/05:14am 5.2 -1.3 4.9 98 0.1 ESE 28 54 15 29 - - 0.0
05/05:00am 5.1 -0.2 4.8 98 0.1 ESE 22 44 12 24 - - 0.0
05/04:30am 4.8 -1.0 4.5 98 0.1 ESE 24 48 13 26 - - 0.0
05/04:00am 4.4 -1.8 4.1 98 0.1 ESE 26 52 14 28 - - 0.0
05/03:53am 4.4 -2.2 4.1 98 0.1 ESE 28 56 15 30 - - 0.0
05/03:30am 4.5 -1.3 4.2 98 0.1 ESE 24 50 13 27 - - 0.0
05/03:21am 4.4 -2.2 4.1 98 0.1 ESE 28 50 15 27 - - 0.0
05/03:00am 4.4 -1.5 4.1 98 0.1 ESE 24 50 13 27 - - 0.0
05/02:30am 4.2 -1.3 3.8 97 0.2 ESE 22 52 12 28 - - 0.0
05/02:00am 4.3 0.5 3.9 97 0.2 ESE 13 37 7 20 - - 0.0
05/01:30am 4.6 0.5 4.2 97 0.2 ESE 15 41 8 22 - - 0.0
05/01:00am 4.9 1.2 4.5 97 0.2 ESE 13 44 7 24 - - 0.0
05/12:30am 5.4 1.8 4.8 96 0.3 ESE 13 33 7 18 - - 0.0
05/12:00am 5.9 2.7 5.3 96 0.3 ESE 11 37 6 20 - - 0.0
 
Date/Time
EDT
Temp
°C
App
Temp
°C
Dew
Point
Rel
Hum
%
Delta-T
°C
Wind Press
QNH
hPa
Press
MSL
hPa
Rain
since 9 am
mm
Dir
 
Spd
km/h
Gust
km/h
Spd
kts
Gust
kts
04/11:30pm 6.6 3.2 6.0 96 0.3 ESE 13 30 7 16 - - 0.0
04/11:00pm 7.0 4.5 6.4 96 0.3 ESE 9 28 5 15 - - 0.0
04/10:30pm 7.7 5.3 7.0 95 0.4 ESE 9 30 5 16 - - 0.0
04/10:00pm 8.2 6.3 7.4 95 0.4 ESE 7 22 4 12 - - 0.0
04/09:30pm 8.9 7.1 8.0 94 0.5 ESE 7 24 4 13 - - 0.0
04/09:00pm 9.0 7.2 7.9 93 0.6 ESE 7 24 4 13 - - 0.0
04/08:30pm 9.5 7.2 7.4 87 1.1 ESE 9 30 5 16 - - 0.0
04/08:00pm 10.1 7.7 7.0 81 1.6 ESE 9 26 5 14 - - 0.0
04/07:30pm 11.1 9.0 6.5 73 2.4 ESE 7 22 4 12 - - 0.0
04/07:00pm 12.0 9.5 6.5 69 2.9 ESE 9 20 5 11 - - 0.0
04/06:30pm 12.5 8.8 6.1 65 3.3 SE 15 30 8 16 - - 0.0
04/06:00pm 13.5 11.1 7.1 65 3.4 ESE 9 35 5 19 - - 0.0
04/05:30pm 14.2 11.6 7.7 65 3.5 ESE 11 30 6 16 - - 0.0
04/05:00pm 14.1 11.7 7.2 63 3.7 ESE 9 30 5 16 - - 0.0
04/04:30pm 14.5 12.2 7.3 62 3.9 SE 9 26 5 14 - - 0.0
04/04:00pm 14.8 12.9 7.4 61 4.0 ESE 7 30 4 16 - - 0.0
04/03:30pm 15.3 13.3 7.3 59 4.3 SE 7 24 4 13 - - 0.0
04/03:00pm 14.8 12.3 6.6 58 4.4 E 9 30 5 16 - - 0.0
04/02:30pm 14.4 12.1 7.5 63 3.7 ESE 9 24 5 13 - - 0.0
04/02:00pm 13.9 11.5 7.2 64 3.6 E 9 26 5 14 - - 0.0
04/01:30pm 13.4 10.8 6.3 62 3.7 ESE 9 26 5 14 - - 0.0
04/01:00pm 12.5 11.2 10.0 85 1.4 ESE 7 24 4 13 - - 0.0
04/12:30pm 11.4 10.3 10.6 95 0.5 ESE 7 20 4 11 - - 0.0
04/12:00pm 10.2 8.1 9.7 97 0.3 SE 11 30 6 16 - - 0.0
04/11:30am 9.7 7.1 9.2 97 0.3 SE 13 28 7 15 - - 0.0
04/11:00am 7.8 4.3 7.4 97 0.2 SE 15 30 8 16 - - 0.0
04/10:30am 7.9 5.2 7.5 97 0.2 ESE 11 26 6 14 - - 0.0
04/10:00am 7.6 4.9 7.2 97 0.2 SE 11 26 6 14 - - 0.0
04/09:30am 7.8 5.5 7.4 97 0.2 ESE 9 32 5 17 - - 0.0
04/09:00am 7.7 5.0 7.3 97 0.2 ESE 11 44 6 24 - - 13.2
04/08:30am 7.8 4.7 7.4 97 0.2 ESE 13 35 7 19 - - 13.2
04/08:00am 7.6 4.5 7.2 97 0.2 E 13 35 7 19 - - 13.2
04/07:30am 7.6 4.1 7.2 97 0.2 ESE 15 41 8 22 - - 13.2
04/07:00am 7.5 3.2 7.1 97 0.2 ESE 19 39 10 21 - - 13.2
04/06:30am 7.7 4.2 7.3 97 0.2 ESE 15 41 8 22 - - 13.2
04/06:00am 7.8 4.7 7.4 97 0.2 ESE 13 35 7 19 - - 13.2
04/05:30am 7.8 4.0 7.4 97 0.2 ESE 17 44 9 24 - - 13.2
04/05:00am 7.7 3.8 7.3 97 0.2 ESE 17 39 9 21 - - 13.2
04/04:30am 7.7 3.8 7.3 97 0.2 ESE 17 43 9 23 - - 13.2
04/04:00am 8.0 5.4 7.6 97 0.2 ESE 11 33 6 18 - - 13.2
04/03:30am 8.2 5.2 7.8 97 0.2 ESE 13 35 7 19 - - 13.2
04/03:00am 8.3 5.3 7.9 97 0.2 ESE 13 37 7 20 - - 13.2
04/02:30am 8.5 5.6 8.1 97 0.2 ESE 13 35 7 19 - - 13.2
04/02:00am 8.5 5.6 8.1 97 0.2 SE 13 33 7 18 - - 13.2
04/01:30am 8.7 5.5 8.3 97 0.2 SE 15 32 8 17 - - 13.2
04/01:00am 9.1 6.7 8.8 98 0.2 ESE 11 37 6 20 - - 13.2
04/12:30am 9.3 6.2 9.0 98 0.2 ESE 15 44 8 24 - - 13.2
04/12:00am 9.5 7.3 9.2 98 0.2 ESE 11 37 6 20 - - 13.0
 
Date/Time
EDT
Temp
°C
App
Temp
°C
Dew
Point
Rel
Hum
%
Delta-T
°C
Wind Press
QNH
hPa
Press
MSL
hPa
Rain
since 9 am
mm
Dir
 
Spd
km/h
Gust
km/h
Spd
kts
Gust
kts
03/11:30pm 9.5 6.9 9.2 98 0.2 ESE 13 37 7 20 - - 12.8
03/11:00pm 9.6 7.4 9.3 98 0.2 ESE 11 33 6 18 - - 11.6
03/10:30pm 9.7 7.5 9.4 98 0.2 ESE 11 33 6 18 - - 10.0

Other Formats:

Comma delimited format used in spreadsheet applications
http://www.bom.gov.au/fwo/IDN60801/IDN60801.95925.axf

JavaScript Object Notation format (JSON) in row-major order
http://www.bom.gov.au/fwo/IDN60801/IDN60801.95925.json